sensor_id;sensor_type;location;lat;lon;timestamp;P1;durP1;ratioP1;P2;durP2;ratioP2
6527;SDS011;64597;42.664;23.256;2024-03-25T00:00:32;0.82;;;0.20;;
6527;SDS011;64597;42.664;23.256;2024-03-25T00:02:59;0.38;;;0.10;;
6527;SDS011;64597;42.664;23.256;2024-03-25T00:05:24;0.08;;;0.00;;
6527;SDS011;64597;42.664;23.256;2024-03-25T00:07:51;0.15;;;0.03;;
6527;SDS011;64597;42.664;23.256;2024-03-25T00:10:17;1.70;;;0.10;;
6527;SDS011;64597;42.664;23.256;2024-03-25T00:15:11;0.00;;;0.00;;
6527;SDS011;64597;42.664;23.256;2024-03-25T00:17:36;0.00;;;0.00;;
6527;SDS011;64597;42.664;23.256;2024-03-25T00:20:01;0.13;;;0.03;;
6527;SDS011;64597;42.664;23.256;2024-03-25T00:22:30;0.10;;;0.10;;
6527;SDS011;64597;42.664;23.256;2024-03-25T00:24:56;0.32;;;0.20;;
6527;SDS011;64597;42.664;23.256;2024-03-25T00:27:21;0.73;;;0.10;;
6527;SDS011;64597;42.664;23.256;2024-03-25T00:29:47;0.93;;;0.20;;
6527;SDS011;64597;42.664;23.256;2024-03-25T00:32:13;0.20;;;0.17;;
6527;SDS011;64597;42.664;23.256;2024-03-25T00:34:40;0.13;;;0.08;;
6527;SDS011;64597;42.664;23.256;2024-03-25T00:37:05;0.10;;;0.03;;
6527;SDS011;64597;42.664;23.256;2024-03-25T00:39:30;0.82;;;0.15;;
6527;SDS011;64597;42.664;23.256;2024-03-25T00:41:57;0.20;;;0.10;;
6527;SDS011;64597;42.664;23.256;2024-03-25T00:44:23;0.10;;;0.10;;
6527;SDS011;64597;42.664;23.256;2024-03-25T00:46:48;0.40;;;0.15;;
6527;SDS011;64597;42.664;23.256;2024-03-25T00:49:14;0.10;;;0.10;;
6527;SDS011;64597;42.664;23.256;2024-03-25T00:51:40;0.20;;;0.20;;
6527;SDS011;64597;42.664;23.256;2024-03-25T00:54:08;0.30;;;0.10;;
6527;SDS011;64597;42.664;23.256;2024-03-25T00:56:33;2.58;;;0.10;;
6527;SDS011;64597;42.664;23.256;2024-03-25T00:58:59;1.55;;;0.15;;
6527;SDS011;64597;42.664;23.256;2024-03-25T01:01:28;0.20;;;0.10;;
6527;SDS011;64597;42.664;23.256;2024-03-25T01:03:54;0.13;;;0.10;;
6527;SDS011;64597;42.664;23.256;2024-03-25T01:06:20;0.60;;;0.10;;
6527;SDS011;64597;42.664;23.256;2024-03-25T01:08:45;0.85;;;0.17;;
6527;SDS011;64597;42.664;23.256;2024-03-25T01:11:11;0.52;;;0.28;;
6527;SDS011;64597;42.664;23.256;2024-03-25T01:13:36;0.70;;;0.17;;
6527;SDS011;64597;42.664;23.256;2024-03-25T01:16:02;0.10;;;0.10;;
6527;SDS011;64597;42.664;23.256;2024-03-25T01:18:28;0.10;;;0.10;;
6527;SDS011;64597;42.664;23.256;2024-03-25T01:20:53;0.00;;;0.00;;
6527;SDS011;64597;42.664;23.256;2024-03-25T01:23:19;0.10;;;0.10;;
6527;SDS011;64597;42.664;23.256;2024-03-25T01:25:45;0.20;;;0.13;;
6527;SDS011;64597;42.664;23.256;2024-03-25T01:28:10;0.55;;;0.10;;
6527;SDS011;64597;42.664;23.256;2024-03-25T01:30:36;0.10;;;0.03;;
6527;SDS011;64597;42.664;23.256;2024-03-25T01:33:04;0.40;;;0.30;;
6527;SDS011;64597;42.664;23.256;2024-03-25T01:35:30;0.20;;;0.10;;
6527;SDS011;64597;42.664;23.256;2024-03-25T01:37:56;0.32;;;0.28;;
6527;SDS011;64597;42.664;23.256;2024-03-25T01:40:21;0.20;;;0.13;;
6527;SDS011;64597;42.664;23.256;2024-03-25T01:43:20;0.10;;;0.10;;
6527;SDS011;64597;42.664;23.256;2024-03-25T01:45:38;0.13;;;0.10;;
6527;SDS011;64597;42.664;23.256;2024-03-25T01:48:04;0.35;;;0.10;;
6527;SDS011;64597;42.664;23.256;2024-03-25T01:50:35;0.10;;;0.03;;
6527;SDS011;64597;42.664;23.256;2024-03-25T01:53:02;0.43;;;0.10;;
6527;SDS011;64597;42.664;23.256;2024-03-25T01:55:29;0.28;;;0.00;;
6527;SDS011;64597;42.664;23.256;2024-03-25T01:57:57;0.00;;;0.00;;
6527;SDS011;64597;42.664;23.256;2024-03-25T02:00:24;0.17;;;0.10;;
6527;SDS011;64597;42.664;23.256;2024-03-25T02:02:51;0.20;;;0.20;;
6527;SDS011;64597;42.664;23.256;2024-03-25T02:05:17;0.15;;;0.00;;
6527;SDS011;64597;42.664;23.256;2024-03-25T02:07:44;0.68;;;0.13;;
6527;SDS011;64597;42.664;23.256;2024-03-25T02:10:10;0.50;;;0.20;;
6527;SDS011;64597;42.664;23.256;2024-03-25T02:12:36;0.38;;;0.10;;
6527;SDS011;64597;42.664;23.256;2024-03-25T02:15:04;0.40;;;0.30;;
6527;SDS011;64597;42.664;23.256;2024-03-25T02:17:30;0.13;;;0.10;;
6527;SDS011;64597;42.664;23.256;2024-03-25T02:19:55;0.40;;;0.30;;
6527;SDS011;64597;42.664;23.256;2024-03-25T02:22:21;0.05;;;0.03;;
6527;SDS011;64597;42.664;23.256;2024-03-25T02:24:46;0.35;;;0.13;;
6527;SDS011;64597;42.664;23.256;2024-03-25T02:27:16;0.30;;;0.10;;
6527;SDS011;64597;42.664;23.256;2024-03-25T02:29:42;0.30;;;0.10;;
6527;SDS011;64597;42.664;23.256;2024-03-25T02:32:09;0.10;;;0.10;;
6527;SDS011;64597;42.664;23.256;2024-03-25T02:34:39;0.65;;;0.20;;
6527;SDS011;64597;42.664;23.256;2024-03-25T02:37:06;0.10;;;0.10;;
6527;SDS011;64597;42.664;23.256;2024-03-25T02:39:32;0.20;;;0.10;;
6527;SDS011;64597;42.664;23.256;2024-03-25T02:41:59;0.32;;;0.10;;
6527;SDS011;64597;42.664;23.256;2024-03-25T02:44:25;0.08;;;0.00;;
6527;SDS011;64597;42.664;23.256;2024-03-25T02:46:50;0.20;;;0.20;;
6527;SDS011;64597;42.664;23.256;2024-03-25T02:49:17;0.30;;;0.00;;
6527;SDS011;64597;42.664;23.256;2024-03-25T02:51:42;0.10;;;0.10;;
6527;SDS011;64597;42.664;23.256;2024-03-25T02:54:08;0.35;;;0.20;;
6527;SDS011;64597;42.664;23.256;2024-03-25T02:56:34;0.57;;;0.10;;
6527;SDS011;64597;42.664;23.256;2024-03-25T02:59:00;0.13;;;0.10;;
6527;SDS011;64597;42.664;23.256;2024-03-25T03:01:26;0.10;;;0.10;;
6527;SDS011;64597;42.664;23.256;2024-03-25T03:03:51;0.28;;;0.20;;
6527;SDS011;64597;42.664;23.256;2024-03-25T03:06:17;0.30;;;0.13;;
6527;SDS011;64597;42.664;23.256;2024-03-25T03:08:43;0.10;;;0.10;;
6527;SDS011;64597;42.664;23.256;2024-03-25T03:11:09;0.38;;;0.25;;
6527;SDS011;64597;42.664;23.256;2024-03-25T03:13:35;0.25;;;0.20;;
6527;SDS011;64597;42.664;23.256;2024-03-25T03:16:00;0.30;;;0.17;;
6527;SDS011;64597;42.664;23.256;2024-03-25T03:18:26;0.35;;;0.22;;
6527;SDS011;64597;42.664;23.256;2024-03-25T03:20:52;0.55;;;0.15;;
6527;SDS011;64597;42.664;23.256;2024-03-25T03:23:20;0.40;;;0.28;;
6527;SDS011;64597;42.664;23.256;2024-03-25T03:25:46;0.40;;;0.30;;
6527;SDS011;64597;42.664;23.256;2024-03-25T03:28:11;0.52;;;0.45;;
6527;SDS011;64597;42.664;23.256;2024-03-25T03:30:37;0.38;;;0.28;;
6527;SDS011;64597;42.664;23.256;2024-03-25T03:33:02;0.80;;;0.40;;
6527;SDS011;64597;42.664;23.256;2024-03-25T03:35:28;1.38;;;0.40;;
6527;SDS011;64597;42.664;23.256;2024-03-25T03:37:53;0.85;;;0.47;;
6527;SDS011;64597;42.664;23.256;2024-03-25T03:40:18;0.30;;;0.20;;
6527;SDS011;64597;42.664;23.256;2024-03-25T03:42:44;0.80;;;0.65;;
6527;SDS011;64597;42.664;23.256;2024-03-25T03:45:09;1.13;;;0.43;;
6527;SDS011;64597;42.664;23.256;2024-03-25T03:47:35;0.70;;;0.50;;
6527;SDS011;64597;42.664;23.256;2024-03-25T03:50:01;0.38;;;0.20;;
6527;SDS011;64597;42.664;23.256;2024-03-25T03:52:26;1.33;;;0.40;;
6527;SDS011;64597;42.664;23.256;2024-03-25T03:54:52;1.08;;;0.30;;
6527;SDS011;64597;42.664;23.256;2024-03-25T03:57:17;0.90;;;0.60;;
6527;SDS011;64597;42.664;23.256;2024-03-25T03:59:42;1.08;;;0.43;;
6527;SDS011;64597;42.664;23.256;2024-03-25T04:02:08;1.10;;;0.68;;
6527;SDS011;64597;42.664;23.256;2024-03-25T04:04:34;1.35;;;0.47;;
6527;SDS011;64597;42.664;23.256;2024-03-25T04:07:00;1.90;;;0.60;;
6527;SDS011;64597;42.664;23.256;2024-03-25T04:09:26;1.85;;;0.80;;
6527;SDS011;64597;42.664;23.256;2024-03-25T04:11:54;2.08;;;0.98;;
6527;SDS011;64597;42.664;23.256;2024-03-25T04:14:20;4.53;;;0.98;;
6527;SDS011;64597;42.664;23.256;2024-03-25T04:16:45;2.92;;;1.35;;
6527;SDS011;64597;42.664;23.256;2024-03-25T04:19:12;1.30;;;0.85;;
6527;SDS011;64597;42.664;23.256;2024-03-25T04:21:38;1.85;;;0.95;;
6527;SDS011;64597;42.664;23.256;2024-03-25T04:24:04;4.82;;;1.70;;
6527;SDS011;64597;42.664;23.256;2024-03-25T04:26:30;3.50;;;1.65;;
6527;SDS011;64597;42.664;23.256;2024-03-25T04:28:55;3.50;;;1.42;;
6527;SDS011;64597;42.664;23.256;2024-03-25T04:31:21;4.70;;;1.90;;
6527;SDS011;64597;42.664;23.256;2024-03-25T04:33:46;2.97;;;1.70;;
6527;SDS011;64597;42.664;23.256;2024-03-25T04:36:12;3.00;;;1.50;;
6527;SDS011;64597;42.664;23.256;2024-03-25T04:38:37;4.40;;;1.70;;
6527;SDS011;64597;42.664;23.256;2024-03-25T04:41:04;4.43;;;2.20;;
6527;SDS011;64597;42.664;23.256;2024-03-25T04:43:29;4.75;;;2.50;;
6527;SDS011;64597;42.664;23.256;2024-03-25T04:45:55;3.10;;;1.88;;
6527;SDS011;64597;42.664;23.256;2024-03-25T04:48:20;3.63;;;2.10;;
6527;SDS011;64597;42.664;23.256;2024-03-25T04:50:46;3.28;;;1.88;;
6527;SDS011;64597;42.664;23.256;2024-03-25T04:53:12;4.82;;;2.25;;
6527;SDS011;64597;42.664;23.256;2024-03-25T04:55:37;5.30;;;2.40;;
6527;SDS011;64597;42.664;23.256;2024-03-25T04:58:03;5.97;;;2.05;;
6527;SDS011;64597;42.664;23.256;2024-03-25T05:00:28;3.30;;;2.00;;
6527;SDS011;64597;42.664;23.256;2024-03-25T05:02:54;4.18;;;2.17;;
6527;SDS011;64597;42.664;23.256;2024-03-25T05:05:20;5.00;;;2.08;;
6527;SDS011;64597;42.664;23.256;2024-03-25T05:07:46;6.35;;;2.42;;
6527;SDS011;64597;42.664;23.256;2024-03-25T05:10:11;3.40;;;2.10;;
6527;SDS011;64597;42.664;23.256;2024-03-25T05:12:37;3.83;;;2.00;;
6527;SDS011;64597;42.664;23.256;2024-03-25T05:15:03;4.88;;;2.65;;
6527;SDS011;64597;42.664;23.256;2024-03-25T05:17:29;4.45;;;2.20;;
6527;SDS011;64597;42.664;23.256;2024-03-25T05:19:55;6.13;;;2.63;;
6527;SDS011;64597;42.664;23.256;2024-03-25T05:22:20;8.20;;;3.60;;
6527;SDS011;64597;42.664;23.256;2024-03-25T05:24:46;5.50;;;3.17;;
6527;SDS011;64597;42.664;23.256;2024-03-25T05:27:11;13.90;;;5.13;;
6527;SDS011;64597;42.664;23.256;2024-03-25T05:29:36;18.38;;;6.22;;
6527;SDS011;64597;42.664;23.256;2024-03-25T05:32:02;12.65;;;5.20;;
6527;SDS011;64597;42.664;23.256;2024-03-25T05:34:28;5.13;;;2.90;;
6527;SDS011;64597;42.664;23.256;2024-03-25T05:36:54;4.93;;;2.33;;
6527;SDS011;64597;42.664;23.256;2024-03-25T05:39:20;4.65;;;2.80;;
6527;SDS011;64597;42.664;23.256;2024-03-25T05:41:46;5.18;;;3.17;;
6527;SDS011;64597;42.664;23.256;2024-03-25T05:44:12;5.00;;;3.13;;
6527;SDS011;64597;42.664;23.256;2024-03-25T05:46:38;4.78;;;2.47;;
6527;SDS011;64597;42.664;23.256;2024-03-25T05:49:04;6.25;;;2.78;;
6527;SDS011;64597;42.664;23.256;2024-03-25T05:51:30;4.57;;;2.28;;
6527;SDS011;64597;42.664;23.256;2024-03-25T05:53:58;5.07;;;2.50;;
6527;SDS011;64597;42.664;23.256;2024-03-25T05:56:23;5.63;;;3.67;;
6527;SDS011;64597;42.664;23.256;2024-03-25T05:58:52;4.95;;;3.72;;
6527;SDS011;64597;42.664;23.256;2024-03-25T06:01:18;4.45;;;3.13;;
6527;SDS011;64597;42.664;23.256;2024-03-25T06:03:43;6.20;;;2.83;;
6527;SDS011;64597;42.664;23.256;2024-03-25T06:06:09;7.72;;;3.33;;
6527;SDS011;64597;42.664;23.256;2024-03-25T06:08:34;4.78;;;2.60;;
6527;SDS011;64597;42.664;23.256;2024-03-25T06:11:00;6.57;;;3.58;;
6527;SDS011;64597;42.664;23.256;2024-03-25T06:13:26;5.13;;;3.08;;
6527;SDS011;64597;42.664;23.256;2024-03-25T06:15:51;5.68;;;2.85;;
6527;SDS011;64597;42.664;23.256;2024-03-25T06:18:17;6.80;;;2.88;;
6527;SDS011;64597;42.664;23.256;2024-03-25T06:20:42;6.30;;;3.67;;
6527;SDS011;64597;42.664;23.256;2024-03-25T06:23:08;6.00;;;3.58;;
6527;SDS011;64597;42.664;23.256;2024-03-25T06:25:33;3.95;;;2.92;;
6527;SDS011;64597;42.664;23.256;2024-03-25T06:28:00;6.07;;;3.17;;
6527;SDS011;64597;42.664;23.256;2024-03-25T06:30:26;6.57;;;4.20;;
6527;SDS011;64597;42.664;23.256;2024-03-25T06:33:10;5.38;;;3.00;;
6527;SDS011;64597;42.664;23.256;2024-03-25T06:35:54;6.07;;;3.00;;
6527;SDS011;64597;42.664;23.256;2024-03-25T06:38:19;5.00;;;3.08;;
6527;SDS011;64597;42.664;23.256;2024-03-25T06:40:45;4.85;;;2.97;;
6527;SDS011;64597;42.664;23.256;2024-03-25T06:43:11;4.55;;;2.70;;
6527;SDS011;64597;42.664;23.256;2024-03-25T06:45:36;5.80;;;3.05;;
6527;SDS011;64597;42.664;23.256;2024-03-25T06:48:02;5.35;;;3.20;;
6527;SDS011;64597;42.664;23.256;2024-03-25T06:50:27;5.43;;;2.95;;
6527;SDS011;64597;42.664;23.256;2024-03-25T06:52:53;5.97;;;3.70;;
6527;SDS011;64597;42.664;23.256;2024-03-25T06:55:19;5.50;;;3.10;;
6527;SDS011;64597;42.664;23.256;2024-03-25T06:57:47;6.20;;;2.72;;
6527;SDS011;64597;42.664;23.256;2024-03-25T07:00:13;8.18;;;3.20;;
6527;SDS011;64597;42.664;23.256;2024-03-25T07:02:39;5.68;;;3.53;;
6527;SDS011;64597;42.664;23.256;2024-03-25T07:05:05;5.45;;;3.13;;
6527;SDS011;64597;42.664;23.256;2024-03-25T07:07:31;5.47;;;3.55;;
6527;SDS011;64597;42.664;23.256;2024-03-25T07:09:58;4.88;;;3.65;;
6527;SDS011;64597;42.664;23.256;2024-03-25T07:12:24;6.22;;;3.05;;
6527;SDS011;64597;42.664;23.256;2024-03-25T07:14:49;5.28;;;3.35;;
6527;SDS011;64597;42.664;23.256;2024-03-25T07:17:16;4.78;;;2.80;;
6527;SDS011;64597;42.664;23.256;2024-03-25T07:19:42;4.47;;;2.97;;
6527;SDS011;64597;42.664;23.256;2024-03-25T07:22:08;5.03;;;3.35;;
6527;SDS011;64597;42.664;23.256;2024-03-25T07:24:34;5.47;;;3.65;;
6527;SDS011;64597;42.664;23.256;2024-03-25T07:26:59;6.68;;;3.65;;
6527;SDS011;64597;42.664;23.256;2024-03-25T07:29:24;5.07;;;3.53;;
6527;SDS011;64597;42.664;23.256;2024-03-25T07:31:50;5.78;;;3.78;;
6527;SDS011;64597;42.664;23.256;2024-03-25T07:34:15;6.32;;;4.30;;
6527;SDS011;64597;42.664;23.256;2024-03-25T07:36:41;4.40;;;3.08;;
6527;SDS011;64597;42.664;23.256;2024-03-25T07:39:07;8.98;;;4.50;;
6527;SDS011;64597;42.664;23.256;2024-03-25T07:41:35;5.45;;;3.50;;
6527;SDS011;64597;42.664;23.256;2024-03-25T07:44:01;4.93;;;3.88;;
6527;SDS011;64597;42.664;23.256;2024-03-25T07:46:30;4.78;;;3.42;;
6527;SDS011;64597;42.664;23.256;2024-03-25T07:48:56;4.07;;;3.05;;
6527;SDS011;64597;42.664;23.256;2024-03-25T07:51:21;6.13;;;3.90;;
6527;SDS011;64597;42.664;23.256;2024-03-25T07:53:47;6.80;;;3.90;;
6527;SDS011;64597;42.664;23.256;2024-03-25T07:56:12;5.30;;;3.13;;
6527;SDS011;64597;42.664;23.256;2024-03-25T07:58:38;4.10;;;2.65;;
6527;SDS011;64597;42.664;23.256;2024-03-25T08:01:03;3.58;;;2.90;;
6527;SDS011;64597;42.664;23.256;2024-03-25T08:03:29;5.13;;;3.55;;
6527;SDS011;64597;42.664;23.256;2024-03-25T08:05:54;4.78;;;3.03;;
6527;SDS011;64597;42.664;23.256;2024-03-25T08:08:20;17.45;;;9.20;;
6527;SDS011;64597;42.664;23.256;2024-03-25T08:10:45;5.50;;;3.63;;
6527;SDS011;64597;42.664;23.256;2024-03-25T08:13:11;7.15;;;3.97;;
6527;SDS011;64597;42.664;23.256;2024-03-25T08:15:37;5.18;;;3.70;;
6527;SDS011;64597;42.664;23.256;2024-03-25T08:18:02;3.58;;;2.70;;
6527;SDS011;64597;42.664;23.256;2024-03-25T08:20:28;5.80;;;4.55;;
6527;SDS011;64597;42.664;23.256;2024-03-25T08:22:53;4.25;;;3.33;;
6527;SDS011;64597;42.664;23.256;2024-03-25T08:25:19;14.32;;;6.82;;
6527;SDS011;64597;42.664;23.256;2024-03-25T08:27:44;10.82;;;5.75;;
6527;SDS011;64597;42.664;23.256;2024-03-25T08:30:10;5.63;;;3.80;;
6527;SDS011;64597;42.664;23.256;2024-03-25T08:32:35;8.35;;;5.10;;
6527;SDS011;64597;42.664;23.256;2024-03-25T08:35:01;7.43;;;4.95;;
6527;SDS011;64597;42.664;23.256;2024-03-25T08:37:26;10.20;;;3.90;;
6527;SDS011;64597;42.664;23.256;2024-03-25T08:39:52;6.40;;;3.58;;
6527;SDS011;64597;42.664;23.256;2024-03-25T08:42:17;7.30;;;4.53;;
6527;SDS011;64597;42.664;23.256;2024-03-25T08:44:43;8.85;;;5.40;;
6527;SDS011;64597;42.664;23.256;2024-03-25T08:47:08;6.55;;;4.03;;
6527;SDS011;64597;42.664;23.256;2024-03-25T08:49:34;4.35;;;3.15;;
6527;SDS011;64597;42.664;23.256;2024-03-25T08:51:59;4.20;;;2.85;;
6527;SDS011;64597;42.664;23.256;2024-03-25T08:54:24;11.60;;;5.97;;
6527;SDS011;64597;42.664;23.256;2024-03-25T08:56:50;7.60;;;4.60;;
6527;SDS011;64597;42.664;23.256;2024-03-25T08:59:15;5.78;;;3.70;;
6527;SDS011;64597;42.664;23.256;2024-03-25T09:01:41;5.35;;;3.90;;
6527;SDS011;64597;42.664;23.256;2024-03-25T09:04:06;6.13;;;3.97;;
6527;SDS011;64597;42.664;23.256;2024-03-25T09:06:31;8.35;;;4.07;;
6527;SDS011;64597;42.664;23.256;2024-03-25T09:08:57;6.55;;;3.90;;
6527;SDS011;64597;42.664;23.256;2024-03-25T09:11:41;6.18;;;4.13;;
6527;SDS011;64597;42.664;23.256;2024-03-25T09:14:06;5.93;;;3.30;;
6527;SDS011;64597;42.664;23.256;2024-03-25T09:16:32;3.17;;;2.85;;
6527;SDS011;64597;42.664;23.256;2024-03-25T09:18:58;7.82;;;4.15;;
6527;SDS011;64597;42.664;23.256;2024-03-25T09:21:23;4.38;;;3.65;;
6527;SDS011;64597;42.664;23.256;2024-03-25T09:23:49;8.98;;;4.53;;
6527;SDS011;64597;42.664;23.256;2024-03-25T09:26:15;7.10;;;4.30;;
6527;SDS011;64597;42.664;23.256;2024-03-25T09:28:40;6.38;;;4.75;;
6527;SDS011;64597;42.664;23.256;2024-03-25T09:31:06;7.35;;;3.83;;
6527;SDS011;64597;42.664;23.256;2024-03-25T09:33:31;5.07;;;3.70;;
6527;SDS011;64597;42.664;23.256;2024-03-25T09:35:58;7.07;;;3.85;;
6527;SDS011;64597;42.664;23.256;2024-03-25T09:38:23;7.22;;;4.25;;
6527;SDS011;64597;42.664;23.256;2024-03-25T09:40:50;6.38;;;3.67;;
6527;SDS011;64597;42.664;23.256;2024-03-25T09:43:23;5.82;;;3.63;;
6527;SDS011;64597;42.664;23.256;2024-03-25T09:45:50;7.53;;;3.95;;
6527;SDS011;64597;42.664;23.256;2024-03-25T09:48:17;5.93;;;3.55;;
6527;SDS011;64597;42.664;23.256;2024-03-25T09:50:46;3.72;;;3.28;;
6527;SDS011;64597;42.664;23.256;2024-03-25T09:53:12;6.13;;;3.20;;
6527;SDS011;64597;42.664;23.256;2024-03-25T09:55:37;9.32;;;3.58;;
6527;SDS011;64597;42.664;23.256;2024-03-25T09:58:03;4.57;;;3.05;;
6527;SDS011;64597;42.664;23.256;2024-03-25T10:00:30;4.18;;;3.00;;
6527;SDS011;64597;42.664;23.256;2024-03-25T10:02:55;4.85;;;2.70;;
6527;SDS011;64597;42.664;23.256;2024-03-25T10:05:25;3.90;;;2.40;;
6527;SDS011;64597;42.664;23.256;2024-03-25T10:07:50;6.90;;;3.30;;
6527;SDS011;64597;42.664;23.256;2024-03-25T10:10:19;3.72;;;2.60;;
6527;SDS011;64597;42.664;23.256;2024-03-25T10:12:45;4.13;;;2.38;;
6527;SDS011;64597;42.664;23.256;2024-03-25T10:15:15;4.25;;;2.63;;
6527;SDS011;64597;42.664;23.256;2024-03-25T10:17:43;5.72;;;2.50;;
6527;SDS011;64597;42.664;23.256;2024-03-25T10:20:15;5.20;;;3.13;;
6527;SDS011;64597;42.664;23.256;2024-03-25T10:22:44;6.45;;;3.05;;
6527;SDS011;64597;42.664;23.256;2024-03-25T10:25:27;4.40;;;2.40;;
6527;SDS011;64597;42.664;23.256;2024-03-25T10:27:54;4.22;;;2.80;;
6527;SDS011;64597;42.664;23.256;2024-03-25T10:30:24;3.58;;;2.22;;
6527;SDS011;64597;42.664;23.256;2024-03-25T10:33:03;7.78;;;2.63;;
6527;SDS011;64597;42.664;23.256;2024-03-25T10:35:33;3.00;;;2.08;;
6527;SDS011;64597;42.664;23.256;2024-03-25T10:38:03;1.92;;;1.45;;
6527;SDS011;64597;42.664;23.256;2024-03-25T10:40:39;4.05;;;2.40;;
6527;SDS011;64597;42.664;23.256;2024-03-25T10:45:32;4.47;;;2.55;;
6527;SDS011;64597;42.664;23.256;2024-03-25T10:48:10;4.13;;;2.13;;
6527;SDS011;64597;42.664;23.256;2024-03-25T10:50:40;3.42;;;2.25;;
6527;SDS011;64597;42.664;23.256;2024-03-25T10:53:08;2.95;;;2.13;;
6527;SDS011;64597;42.664;23.256;2024-03-25T10:55:36;4.07;;;2.45;;
6527;SDS011;64597;42.664;23.256;2024-03-25T10:58:03;3.25;;;2.40;;
6527;SDS011;64597;42.664;23.256;2024-03-25T11:00:29;4.10;;;2.70;;
6527;SDS011;64597;42.664;23.256;2024-03-25T11:02:55;3.20;;;2.40;;
6527;SDS011;64597;42.664;23.256;2024-03-25T11:05:21;4.45;;;2.75;;
6527;SDS011;64597;42.664;23.256;2024-03-25T11:07:47;4.70;;;2.78;;
6527;SDS011;64597;42.664;23.256;2024-03-25T11:10:13;2.35;;;1.80;;
6527;SDS011;64597;42.664;23.256;2024-03-25T11:12:40;2.90;;;2.17;;
6527;SDS011;64597;42.664;23.256;2024-03-25T11:15:08;3.00;;;2.17;;
6527;SDS011;64597;42.664;23.256;2024-03-25T11:17:34;3.13;;;2.38;;
6527;SDS011;64597;42.664;23.256;2024-03-25T11:20:07;4.68;;;2.58;;
6527;SDS011;64597;42.664;23.256;2024-03-25T11:22:46;3.72;;;2.55;;
6527;SDS011;64597;42.664;23.256;2024-03-25T11:25:16;2.88;;;2.08;;
6527;SDS011;64597;42.664;23.256;2024-03-25T11:27:45;4.30;;;2.35;;
6527;SDS011;64597;42.664;23.256;2024-03-25T11:30:11;3.50;;;2.45;;
6527;SDS011;64597;42.664;23.256;2024-03-25T11:32:53;5.22;;;3.22;;
6527;SDS011;64597;42.664;23.256;2024-03-25T11:35:20;4.35;;;2.47;;
6527;SDS011;64597;42.664;23.256;2024-03-25T11:37:46;3.05;;;2.00;;
6527;SDS011;64597;42.664;23.256;2024-03-25T11:40:12;2.50;;;1.70;;
6527;SDS011;64597;42.664;23.256;2024-03-25T11:42:39;2.88;;;1.73;;
6527;SDS011;64597;42.664;23.256;2024-03-25T11:45:06;3.35;;;2.20;;
6527;SDS011;64597;42.664;23.256;2024-03-25T11:47:33;2.97;;;1.83;;
6527;SDS011;64597;42.664;23.256;2024-03-25T11:49:58;3.92;;;2.05;;
6527;SDS011;64597;42.664;23.256;2024-03-25T11:52:29;3.75;;;2.10;;
6527;SDS011;64597;42.664;23.256;2024-03-25T11:54:55;2.90;;;2.05;;
6527;SDS011;64597;42.664;23.256;2024-03-25T11:57:21;3.25;;;2.30;;
6527;SDS011;64597;42.664;23.256;2024-03-25T11:59:47;4.05;;;2.40;;
6527;SDS011;64597;42.664;23.256;2024-03-25T12:02:16;3.40;;;2.25;;
6527;SDS011;64597;42.664;23.256;2024-03-25T12:04:45;3.85;;;2.10;;
6527;SDS011;64597;42.664;23.256;2024-03-25T12:07:11;3.25;;;1.98;;
6527;SDS011;64597;42.664;23.256;2024-03-25T12:09:37;3.10;;;2.25;;
6527;SDS011;64597;42.664;23.256;2024-03-25T12:12:21;2.70;;;1.83;;
6527;SDS011;64597;42.664;23.256;2024-03-25T12:14:47;3.58;;;2.15;;
6527;SDS011;64597;42.664;23.256;2024-03-25T12:17:13;2.80;;;1.75;;
6527;SDS011;64597;42.664;23.256;2024-03-25T12:19:39;2.78;;;1.70;;
6527;SDS011;64597;42.664;23.256;2024-03-25T12:22:06;3.65;;;1.73;;
6527;SDS011;64597;42.664;23.256;2024-03-25T12:24:32;4.63;;;1.83;;
6527;SDS011;64597;42.664;23.256;2024-03-25T12:26:58;2.65;;;1.52;;
6527;SDS011;64597;42.664;23.256;2024-03-25T12:29:24;2.33;;;1.83;;
6527;SDS011;64597;42.664;23.256;2024-03-25T12:31:56;3.13;;;1.67;;
6527;SDS011;64597;42.664;23.256;2024-03-25T12:34:26;2.17;;;1.73;;
6527;SDS011;64597;42.664;23.256;2024-03-25T12:37:03;2.05;;;1.55;;
6527;SDS011;64597;42.664;23.256;2024-03-25T12:39:29;2.00;;;1.27;;
6527;SDS011;64597;42.664;23.256;2024-03-25T12:41:55;2.63;;;1.70;;
6527;SDS011;64597;42.664;23.256;2024-03-25T12:44:21;2.08;;;1.60;;
6527;SDS011;64597;42.664;23.256;2024-03-25T12:46:47;3.20;;;1.80;;
6527;SDS011;64597;42.664;23.256;2024-03-25T12:49:12;3.55;;;1.98;;
6527;SDS011;64597;42.664;23.256;2024-03-25T12:51:38;4.93;;;1.65;;
6527;SDS011;64597;42.664;23.256;2024-03-25T12:54:03;1.95;;;1.52;;
6527;SDS011;64597;42.664;23.256;2024-03-25T12:56:29;2.67;;;1.77;;
6527;SDS011;64597;42.664;23.256;2024-03-25T12:58:54;3.50;;;2.50;;
6527;SDS011;64597;42.664;23.256;2024-03-25T13:01:19;3.85;;;2.35;;
6527;SDS011;64597;42.664;23.256;2024-03-25T13:03:45;3.65;;;2.22;;
6527;SDS011;64597;42.664;23.256;2024-03-25T13:06:10;2.28;;;2.08;;
6527;SDS011;64597;42.664;23.256;2024-03-25T13:08:36;4.55;;;2.55;;
6527;SDS011;64597;42.664;23.256;2024-03-25T13:11:01;3.72;;;1.88;;
6527;SDS011;64597;42.664;23.256;2024-03-25T13:13:27;3.08;;;1.80;;
6527;SDS011;64597;42.664;23.256;2024-03-25T13:15:52;2.90;;;1.80;;
6527;SDS011;64597;42.664;23.256;2024-03-25T13:18:18;2.97;;;2.33;;
6527;SDS011;64597;42.664;23.256;2024-03-25T13:20:44;3.60;;;2.58;;
6527;SDS011;64597;42.664;23.256;2024-03-25T13:23:10;4.25;;;2.65;;
6527;SDS011;64597;42.664;23.256;2024-03-25T13:25:36;2.40;;;1.60;;
6527;SDS011;64597;42.664;23.256;2024-03-25T13:28:01;2.22;;;1.83;;
6527;SDS011;64597;42.664;23.256;2024-03-25T13:30:27;3.13;;;1.73;;
6527;SDS011;64597;42.664;23.256;2024-03-25T13:32:55;3.25;;;1.85;;
6527;SDS011;64597;42.664;23.256;2024-03-25T13:35:20;2.05;;;1.80;;
6527;SDS011;64597;42.664;23.256;2024-03-25T13:37:46;2.40;;;1.52;;
6527;SDS011;64597;42.664;23.256;2024-03-25T13:40:11;2.78;;;1.73;;
6527;SDS011;64597;42.664;23.256;2024-03-25T13:42:37;1.88;;;1.45;;
6527;SDS011;64597;42.664;23.256;2024-03-25T13:45:03;2.50;;;1.70;;
6527;SDS011;64597;42.664;23.256;2024-03-25T13:47:29;23.85;;;8.30;;
6527;SDS011;64597;42.664;23.256;2024-03-25T13:50:02;7.15;;;3.08;;
6527;SDS011;64597;42.664;23.256;2024-03-25T13:52:34;1.95;;;1.52;;
6527;SDS011;64597;42.664;23.256;2024-03-25T13:55:00;4.00;;;1.55;;
6527;SDS011;64597;42.664;23.256;2024-03-25T13:57:26;4.40;;;1.92;;
6527;SDS011;64597;42.664;23.256;2024-03-25T13:59:52;1.90;;;1.60;;
6527;SDS011;64597;42.664;23.256;2024-03-25T14:02:17;1.83;;;1.23;;
6527;SDS011;64597;42.664;23.256;2024-03-25T14:04:43;1.40;;;1.02;;
6527;SDS011;64597;42.664;23.256;2024-03-25T14:07:08;1.63;;;0.82;;
6527;SDS011;64597;42.664;23.256;2024-03-25T14:09:33;1.63;;;0.98;;
6527;SDS011;64597;42.664;23.256;2024-03-25T14:11:59;1.40;;;0.77;;
6527;SDS011;64597;42.664;23.256;2024-03-25T14:14:24;1.67;;;0.90;;
6527;SDS011;64597;42.664;23.256;2024-03-25T14:16:50;1.65;;;0.82;;
6527;SDS011;64597;42.664;23.256;2024-03-25T14:19:17;2.40;;;1.30;;
6527;SDS011;64597;42.664;23.256;2024-03-25T14:21:42;2.58;;;1.00;;
6527;SDS011;64597;42.664;23.256;2024-03-25T14:24:08;2.65;;;1.73;;
6527;SDS011;64597;42.664;23.256;2024-03-25T14:26:34;1.98;;;1.10;;
6527;SDS011;64597;42.664;23.256;2024-03-25T14:28:59;2.20;;;1.05;;
6527;SDS011;64597;42.664;23.256;2024-03-25T14:31:25;1.25;;;0.73;;
6527;SDS011;64597;42.664;23.256;2024-03-25T14:33:53;1.92;;;0.90;;
6527;SDS011;64597;42.664;23.256;2024-03-25T14:36:18;1.85;;;1.02;;
6527;SDS011;64597;42.664;23.256;2024-03-25T14:38:44;1.65;;;1.10;;
6527;SDS011;64597;42.664;23.256;2024-03-25T14:41:12;2.22;;;1.25;;
6527;SDS011;64597;42.664;23.256;2024-03-25T14:43:39;1.50;;;1.10;;
6527;SDS011;64597;42.664;23.256;2024-03-25T14:46:05;1.23;;;0.90;;
6527;SDS011;64597;42.664;23.256;2024-03-25T14:48:30;1.38;;;0.82;;